Taylor, Nebraska
Current Conditions -  °F | °C
As of 2:53 PM on Tuesday 27 Jan 2015 (Local Time) from KODX Reporting Station
Clear Clear  
Wind Chill: 59°   Ceiling: Unl
Heat Index: 59°   Visibility: 10mi
Dew Point: 34°   Wind: 8mph
Humidity: 39%   Direction: 140°SE
Pressure: 29.93"   Gusts: NA
Location:  41.77°N, 99.38°W
Report Text: KODX 272053Z AUTO 14007KT 10SM CLR 15/01 A2993 RMK AO2 SLP147 T01500011 56027
Loading
Personal Weather Stations






























Interactive Weather Map New forecast layout! Learn more

10-Day Weather Forecast

Advertisements
Track Severe Weather on mobile